createdAt,value
2022-10-17T00:00:00.353Z,13.86
2022-10-17T00:02:27.802Z,13.85
2022-10-17T00:04:56.585Z,13.92
2022-10-17T00:07:24.311Z,13.65
2022-10-17T00:09:51.755Z,13.86
2022-10-17T00:12:19.525Z,13.94
2022-10-17T00:14:46.932Z,13.89
2022-10-17T00:17:15.267Z,13.75
2022-10-17T00:19:42.678Z,13.78
2022-10-17T00:22:11.531Z,13.81
2022-10-17T00:24:39.317Z,13.84
2022-10-17T00:27:06.812Z,13.79
2022-10-17T00:29:34.303Z,13.80
2022-10-17T00:32:01.725Z,13.77
2022-10-17T00:34:30.013Z,13.68
2022-10-17T00:36:57.579Z,13.73
2022-10-17T00:39:26.477Z,13.70
2022-10-17T00:41:54.019Z,13.71
2022-10-17T00:44:40.787Z,13.75
2022-10-17T00:47:10.838Z,13.72
2022-10-17T00:49:40.624Z,13.74
2022-10-17T00:52:11.115Z,13.76
2022-10-17T00:54:41.224Z,13.83
2022-10-17T00:57:09.039Z,13.81
2022-10-17T00:59:39.357Z,13.76
2022-10-17T01:02:08.175Z,13.76
2022-10-17T01:04:36.600Z,13.69
2022-10-17T01:07:04.143Z,13.76
2022-10-17T01:09:31.766Z,13.85
2022-10-17T01:12:05.420Z,13.79
2022-10-17T01:14:36.189Z,13.76
2022-10-17T01:17:07.101Z,13.73
2022-10-17T01:19:48.590Z,13.73
2022-10-17T01:22:20.534Z,13.80
2022-10-17T01:24:50.138Z,13.77
2022-10-17T01:27:25.589Z,13.82
2022-10-17T01:30:14.210Z,13.84
2022-10-17T01:32:46.572Z,13.81
2022-10-17T01:35:20.377Z,13.70
2022-10-17T01:37:49.379Z,13.74
2022-10-17T01:40:18.310Z,13.73
2022-10-17T01:42:50.650Z,13.69
2022-10-17T01:45:22.394Z,13.76
2022-10-17T01:47:53.274Z,13.76
2022-10-17T01:50:24.335Z,13.76
2022-10-17T01:52:53.729Z,13.78
2022-10-17T01:55:22.778Z,13.73
2022-10-17T01:57:51.881Z,13.73
2022-10-17T02:00:20.672Z,13.81
2022-10-17T02:02:49.660Z,13.76
2022-10-17T02:05:20.253Z,13.74
2022-10-17T02:07:47.816Z,13.69
2022-10-17T02:10:22.335Z,13.70
2022-10-17T02:12:53.273Z,13.71
2022-10-17T02:15:29.532Z,13.75
2022-10-17T02:18:02.210Z,13.83
2022-10-17T02:20:33.008Z,13.30
2022-10-17T02:23:06.015Z,13.71
2022-10-17T02:25:38.010Z,13.54
2022-10-17T02:28:17.608Z,13.54
2022-10-17T02:30:48.443Z,13.47
2022-10-17T02:33:19.607Z,13.47
2022-10-17T02:35:51.728Z,13.56
2022-10-17T02:38:19.377Z,13.53
2022-10-17T02:40:47.709Z,13.60
2022-10-17T02:43:15.773Z,13.62
2022-10-17T02:45:43.236Z,13.68
2022-10-17T02:48:13.264Z,13.72
2022-10-17T02:50:44.801Z,13.74
2022-10-17T02:53:16.471Z,13.78
2022-10-17T02:55:47.074Z,13.81
2022-10-17T02:58:17.800Z,13.88
2022-10-17T03:00:45.947Z,13.91
2022-10-17T03:03:20.480Z,13.94
2022-10-17T03:05:47.912Z,13.98
2022-10-17T03:08:17.534Z,14.04
2022-10-17T03:10:45.096Z,14.16
2022-10-17T03:13:12.748Z,14.16
2022-10-17T03:15:40.395Z,14.23
2022-10-17T03:18:07.839Z,14.31
2022-10-17T03:20:35.245Z,14.38
2022-10-17T03:23:02.733Z,14.46
2022-10-17T03:25:31.563Z,14.44
2022-10-17T03:27:59.917Z,14.43
2022-10-17T03:30:29.928Z,14.47
2022-10-17T03:32:58.361Z,14.51
2022-10-17T03:35:25.923Z,14.58
2022-10-17T03:37:53.405Z,14.60
2022-10-17T03:40:20.853Z,14.63
2022-10-17T03:42:49.676Z,14.64
2022-10-17T03:45:17.235Z,14.68
2022-10-17T03:47:44.871Z,14.66
2022-10-17T03:50:12.565Z,14.68
2022-10-17T03:52:40.242Z,14.77
2022-10-17T03:55:07.980Z,14.75
2022-10-17T03:57:35.702Z,14.76
2022-10-17T04:00:05.284Z,14.75
2022-10-17T04:02:32.939Z,14.74
2022-10-17T04:05:00.401Z,14.71
2022-10-17T04:07:27.895Z,14.74
2022-10-17T04:09:55.352Z,14.73
2022-10-17T04:12:22.740Z,14.79
2022-10-17T04:14:50.149Z,14.76
2022-10-17T04:17:18.947Z,14.78
2022-10-17T04:19:46.502Z,14.77
2022-10-17T04:22:14.265Z,14.78
2022-10-17T04:24:41.707Z,14.78
2022-10-17T04:27:09.169Z,14.83
2022-10-17T04:29:36.560Z,14.76
2022-10-17T04:32:04.068Z,14.79
2022-10-17T04:34:32.941Z,14.82
2022-10-17T04:37:00.500Z,14.89
2022-10-17T04:39:28.057Z,14.91
2022-10-17T04:41:56.433Z,14.95
2022-10-17T04:44:24.113Z,14.95
2022-10-17T04:46:51.538Z,15.00
2022-10-17T04:49:19.069Z,15.00
2022-10-17T04:51:48.208Z,15.04
2022-10-17T04:54:17.408Z,15.11
2022-10-17T04:56:45.070Z,15.15
2022-10-17T04:59:12.539Z,15.14
2022-10-17T05:01:40.380Z,15.16
2022-10-17T05:04:07.772Z,15.21
2022-10-17T05:06:35.237Z,15.19
2022-10-17T05:09:04.064Z,15.21
2022-10-17T05:11:31.504Z,15.22
2022-10-17T05:14:00.169Z,15.20
2022-10-17T05:16:28.266Z,15.23
2022-10-17T05:18:56.693Z,15.20
2022-10-17T05:21:25.185Z,15.19
2022-10-17T05:23:52.747Z,15.18
2022-10-17T05:26:21.906Z,15.22
2022-10-17T05:28:49.447Z,15.25
2022-10-17T05:31:17.027Z,15.20
2022-10-17T05:33:44.836Z,15.21
2022-10-17T05:36:12.284Z,15.20
2022-10-17T05:38:40.107Z,15.22
2022-10-17T05:41:07.757Z,15.23
2022-10-17T05:43:36.551Z,15.25
2022-10-17T05:46:04.981Z,15.28
2022-10-17T05:48:32.412Z,15.27
2022-10-17T05:51:00.699Z,15.29
2022-10-17T05:53:31.185Z,15.29
2022-10-17T05:55:58.882Z,15.24
2022-10-17T06:01:15.575Z,15.27
2022-10-17T06:03:43.088Z,15.22
2022-10-17T06:06:12.044Z,15.19
2022-10-17T06:08:40.059Z,15.21
2022-10-17T06:11:10.034Z,15.19
2022-10-17T06:13:38.592Z,15.16
2022-10-17T06:16:06.632Z,15.14
2022-10-17T06:18:35.634Z,15.15
2022-10-17T06:21:04.038Z,15.18
2022-10-17T06:23:31.487Z,15.18
2022-10-17T06:25:59.796Z,15.22
2022-10-17T06:28:27.625Z,15.22
2022-10-17T06:30:55.295Z,15.24
2022-10-17T06:33:23.366Z,15.25
2022-10-17T06:35:56.110Z,15.26
2022-10-17T06:38:24.620Z,15.30
2022-10-17T06:40:54.260Z,15.34
2022-10-17T06:43:27.750Z,15.34
2022-10-17T06:48:26.667Z,15.38
2022-10-17T06:51:00.038Z,15.37
2022-10-17T06:53:29.111Z,15.43
2022-10-17T06:56:01.570Z,15.43
2022-10-17T06:58:30.113Z,15.41
2022-10-17T07:01:01.084Z,15.40
2022-10-17T07:03:29.661Z,15.45
2022-10-17T07:05:59.957Z,15.07
2022-10-17T07:08:28.199Z,15.53
2022-10-17T07:10:57.057Z,15.56
2022-10-17T07:13:25.754Z,15.62
2022-10-17T07:18:30.092Z,15.59
2022-10-17T07:20:58.895Z,15.61
2022-10-17T07:23:26.425Z,15.61
2022-10-17T07:25:54.203Z,15.62
2022-10-17T07:28:21.737Z,15.63
2022-10-17T07:30:52.061Z,15.66
2022-10-17T07:33:22.067Z,15.66
2022-10-17T07:35:49.498Z,15.68
2022-10-17T07:38:18.316Z,15.68
2022-10-17T07:40:45.808Z,15.69
2022-10-17T07:43:13.283Z,15.72
2022-10-17T07:45:42.300Z,15.73
2022-10-17T07:48:09.708Z,15.76
2022-10-17T07:50:37.180Z,15.78
2022-10-17T07:53:04.628Z,15.89
2022-10-17T07:55:33.444Z,15.89
2022-10-17T07:58:01.062Z,15.90
2022-10-17T08:00:28.560Z,15.97
2022-10-17T08:02:55.993Z,15.93
2022-10-17T08:05:23.649Z,15.86
2022-10-17T08:07:51.097Z,15.85
2022-10-17T08:10:18.633Z,15.88
2022-10-17T08:12:47.445Z,15.94
2022-10-17T08:15:14.993Z,16.03
2022-10-17T08:17:42.491Z,16.07
2022-10-17T08:20:11.173Z,16.11
2022-10-17T08:22:39.134Z,16.05
2022-10-17T08:25:07.180Z,16.12
2022-10-17T08:27:34.631Z,16.08
2022-10-17T08:30:04.026Z,16.01
2022-10-17T08:32:31.817Z,16.06
2022-10-17T08:35:00.260Z,16.09
2022-10-17T08:37:27.940Z,16.09
2022-10-17T08:39:55.602Z,16.04
2022-10-17T08:42:32.014Z,16.04
2022-10-17T08:45:06.767Z,15.99
2022-10-17T08:47:38.738Z,15.99
2022-10-17T08:50:08.135Z,16.07
2022-10-17T08:52:39.017Z,16.03
2022-10-17T08:55:14.718Z,16.13
2022-10-17T08:57:42.351Z,16.01
2022-10-17T09:00:15.748Z,16.03
2022-10-17T09:02:49.402Z,16.01
2022-10-17T09:05:28.148Z,15.99
2022-10-17T09:07:58.419Z,15.59
2022-10-17T09:10:31.737Z,16.00
2022-10-17T09:13:07.019Z,15.99
2022-10-17T09:15:43.026Z,16.05
2022-10-17T09:18:13.371Z,16.09
2022-10-17T09:20:43.290Z,16.17
2022-10-17T09:23:13.586Z,16.18
2022-10-17T09:25:44.113Z,16.18
2022-10-17T09:28:17.172Z,16.12
2022-10-17T09:30:46.184Z,16.12
2022-10-17T09:33:34.822Z,16.16
2022-10-17T09:36:04.518Z,16.17
2022-10-17T09:38:37.643Z,16.18
2022-10-17T09:41:19.900Z,16.18
2022-10-17T09:43:56.892Z,16.29
2022-10-17T09:46:27.106Z,16.16
2022-10-17T09:48:58.322Z,16.27
2022-10-17T09:51:26.358Z,16.32
2022-10-17T09:53:56.456Z,16.37
2022-10-17T09:56:23.995Z,16.35
2022-10-17T09:58:54.382Z,16.32
2022-10-17T10:01:24.321Z,16.31
2022-10-17T10:04:07.122Z,16.49
2022-10-17T10:06:35.930Z,16.46
2022-10-17T10:09:06.157Z,16.39
2022-10-17T10:11:47.216Z,16.36
2022-10-17T10:14:21.102Z,16.43
2022-10-17T10:16:49.875Z,16.48
2022-10-17T10:19:22.469Z,16.44
2022-10-17T10:21:58.021Z,16.49
2022-10-17T10:24:30.811Z,16.41
2022-10-17T10:27:00.742Z,16.45
2022-10-17T10:29:31.019Z,16.36
2022-10-17T10:32:07.776Z,16.41
2022-10-17T10:34:36.615Z,16.28
2022-10-17T10:37:06.931Z,16.26
2022-10-17T10:39:36.428Z,16.28
2022-10-17T10:42:05.284Z,16.32
2022-10-17T10:44:34.036Z,16.38
2022-10-17T10:47:08.972Z,16.32
2022-10-17T10:49:37.154Z,16.35
2022-10-17T10:52:07.087Z,16.26
2022-10-17T10:57:13.846Z,16.16
2022-10-17T10:59:44.010Z,16.15
2022-10-17T11:02:16.084Z,16.09
2022-10-17T11:04:47.424Z,16.14
2022-10-17T11:07:17.914Z,16.19
2022-10-17T11:09:47.620Z,16.25
2022-10-17T11:12:21.844Z,16.13
2022-10-17T11:14:52.188Z,15.80
2022-10-17T11:17:25.459Z,16.24
2022-10-17T11:19:56.461Z,16.26
2022-10-17T11:22:29.544Z,16.29
2022-10-17T11:24:59.767Z,16.32
2022-10-17T11:27:32.712Z,16.19
2022-10-17T11:30:00.306Z,16.17
2022-10-17T11:32:31.561Z,16.20
2022-10-17T11:35:03.388Z,16.28
2022-10-17T11:37:35.205Z,16.10
2022-10-17T11:40:04.742Z,16.18
2022-10-17T11:42:34.212Z,16.23
2022-10-17T11:45:04.693Z,16.20
2022-10-17T11:47:37.513Z,16.10
2022-10-17T11:52:59.951Z,16.12
2022-10-17T11:55:28.351Z,16.16
2022-10-17T11:58:01.118Z,16.20
2022-10-17T12:00:35.783Z,16.12
2022-10-17T12:03:12.579Z,16.30
2022-10-17T12:05:46.693Z,16.25
2022-10-17T12:08:20.499Z,16.34
2022-10-17T12:10:53.780Z,16.31
2022-10-17T12:13:41.967Z,16.36
2022-10-17T12:16:33.921Z,16.29
2022-10-17T12:19:22.060Z,16.29
2022-10-17T12:21:57.429Z,16.45
2022-10-17T12:24:30.040Z,16.19
2022-10-17T12:26:57.561Z,16.04
2022-10-17T12:29:29.030Z,16.11
2022-10-17T12:32:10.525Z,16.11
2022-10-17T12:34:38.704Z,16.12
2022-10-17T12:37:06.174Z,16.15
2022-10-17T12:39:52.330Z,16.23
2022-10-17T12:42:34.837Z,16.27
2022-10-17T12:45:02.331Z,16.29
2022-10-17T12:47:37.325Z,16.42
2022-10-17T12:50:05.014Z,16.57
2022-10-17T12:52:58.061Z,16.53
2022-10-17T12:55:26.383Z,16.47
2022-10-17T12:58:00.020Z,16.53
2022-10-17T13:00:35.864Z,16.65
2022-10-17T13:03:06.026Z,16.50
2022-10-17T13:05:35.252Z,16.04
2022-10-17T13:08:04.674Z,16.49
2022-10-17T13:10:33.157Z,16.40
2022-10-17T13:13:05.871Z,16.50
2022-10-17T13:15:34.525Z,16.44
2022-10-17T13:18:02.312Z,16.47
2022-10-17T13:20:31.901Z,16.69
2022-10-17T13:23:00.082Z,16.59
2022-10-17T13:25:28.241Z,16.68
2022-10-17T13:28:07.987Z,16.63
2022-10-17T13:30:36.403Z,16.67
2022-10-17T13:33:04.151Z,16.64
2022-10-17T13:38:23.396Z,16.59
2022-10-17T13:40:50.945Z,16.64
2022-10-17T13:43:20.916Z,16.65
2022-10-17T13:45:50.575Z,16.62
2022-10-17T13:48:20.795Z,16.68
2022-10-17T13:50:50.344Z,16.74
2022-10-17T13:53:19.488Z,16.72
2022-10-17T13:56:15.819Z,16.60
2022-10-17T13:58:47.535Z,16.72
2022-10-17T14:01:15.770Z,16.77
2022-10-17T14:03:48.750Z,16.92
2022-10-17T14:06:19.119Z,16.78
2022-10-17T14:08:58.799Z,16.93
2022-10-17T14:11:28.391Z,16.80
2022-10-17T14:13:57.992Z,16.90
2022-10-17T14:16:26.997Z,16.84
2022-10-17T14:18:54.694Z,16.87
2022-10-17T14:21:44.327Z,16.96
2022-10-17T14:24:15.694Z,16.92
2022-10-17T14:26:50.306Z,16.89
2022-10-17T14:29:24.821Z,17.17
2022-10-17T14:31:58.379Z,17.09
2022-10-17T14:34:28.726Z,17.22
2022-10-17T14:36:56.360Z,16.86
2022-10-17T14:39:24.865Z,17.29
2022-10-17T14:41:52.784Z,17.30
2022-10-17T14:44:26.195Z,17.26
2022-10-17T14:46:59.325Z,17.26
2022-10-17T14:49:34.050Z,17.09
2022-10-17T14:52:28.288Z,16.99
2022-10-17T14:54:56.629Z,16.88
2022-10-17T14:57:26.009Z,16.89
2022-10-17T14:59:55.997Z,16.76
2022-10-17T15:02:23.960Z,16.74
2022-10-17T15:04:51.387Z,16.75
2022-10-17T15:07:19.140Z,16.89
2022-10-17T15:09:48.343Z,16.91
2022-10-17T15:12:17.172Z,17.03
2022-10-17T15:14:45.170Z,17.06
2022-10-17T15:17:16.151Z,17.24
2022-10-17T15:19:43.827Z,17.17
2022-10-17T15:22:11.282Z,17.12
2022-10-17T15:24:39.397Z,16.99
2022-10-17T15:27:08.677Z,17.04
2022-10-17T15:29:36.128Z,17.10
2022-10-17T15:32:03.562Z,17.14
2022-10-17T15:34:32.442Z,17.04
2022-10-17T15:37:00.004Z,16.86
2022-10-17T15:39:27.475Z,16.75
2022-10-17T15:41:54.993Z,16.74
2022-10-17T15:44:22.439Z,16.69
2022-10-17T15:46:49.942Z,16.68
2022-10-17T15:49:19.666Z,16.62
2022-10-17T15:51:51.713Z,16.61
2022-10-17T15:54:22.848Z,16.57
2022-10-17T15:56:53.454Z,16.59
2022-10-17T15:59:22.868Z,16.48
2022-10-17T16:01:50.738Z,16.55
2022-10-17T16:04:18.791Z,16.52
2022-10-17T16:06:46.211Z,16.63
2022-10-17T16:09:15.048Z,16.62
2022-10-17T16:11:43.812Z,16.65
2022-10-17T16:14:12.115Z,16.53
2022-10-17T16:16:40.099Z,16.33
2022-10-17T16:19:07.590Z,16.35
2022-10-17T16:21:36.291Z,16.35
2022-10-17T16:24:04.411Z,16.17
2022-10-17T16:26:33.217Z,16.06
2022-10-17T16:29:02.998Z,16.04
2022-10-17T16:31:32.461Z,16.04
2022-10-17T16:34:00.932Z,16.09
2022-10-17T16:36:28.560Z,16.06
2022-10-17T16:38:56.114Z,16.00
2022-10-17T16:41:24.853Z,16.08
2022-10-17T16:43:55.020Z,16.01
2022-10-17T16:46:22.834Z,15.87
2022-10-17T16:48:50.431Z,15.74
2022-10-17T16:51:19.032Z,15.88
2022-10-17T16:53:46.726Z,16.01
2022-10-17T16:56:15.112Z,15.88
2022-10-17T16:58:43.309Z,15.90
2022-10-17T17:01:13.905Z,15.80
2022-10-17T17:03:42.650Z,15.66
2022-10-17T17:06:12.510Z,15.66
2022-10-17T17:08:40.242Z,15.61
2022-10-17T17:11:08.143Z,15.63
2022-10-17T17:13:35.839Z,15.68
2022-10-17T17:16:04.094Z,15.57
2022-10-17T17:18:32.937Z,15.59
2022-10-17T17:21:00.825Z,15.61
2022-10-17T17:23:28.376Z,15.57
2022-10-17T17:25:59.472Z,15.45
2022-10-17T17:28:27.209Z,15.49
2022-10-17T17:30:55.786Z,15.53
2022-10-17T17:33:23.548Z,15.54
2022-10-17T17:35:56.496Z,15.58
2022-10-17T17:38:24.555Z,15.62
2022-10-17T17:40:52.626Z,15.46
2022-10-17T17:43:20.416Z,15.34
2022-10-17T17:45:48.392Z,15.44
2022-10-17T17:48:16.162Z,15.36
2022-10-17T17:50:43.664Z,15.41
2022-10-17T17:53:13.911Z,15.29
2022-10-17T17:55:41.649Z,14.49
2022-10-17T17:58:09.454Z,15.43
2022-10-17T18:00:37.236Z,15.35
2022-10-17T18:03:04.780Z,15.39
2022-10-17T18:05:32.740Z,15.46
2022-10-17T18:08:01.044Z,15.25
2022-10-17T18:10:30.275Z,15.32
2022-10-17T18:12:57.800Z,15.33
2022-10-17T18:15:25.367Z,15.33
2022-10-17T18:17:53.077Z,15.39
2022-10-17T18:20:20.781Z,15.35
2022-10-17T18:22:48.246Z,15.39
2022-10-17T18:25:15.977Z,15.38
2022-10-17T18:27:44.795Z,15.40
2022-10-17T18:30:14.035Z,15.40
2022-10-17T18:32:41.630Z,15.18
2022-10-17T18:35:09.348Z,15.20
2022-10-17T18:37:36.847Z,15.15
2022-10-17T18:40:04.735Z,15.14
2022-10-17T18:42:32.645Z,15.11
2022-10-17T18:45:03.208Z,15.24
2022-10-17T18:47:31.333Z,15.20
2022-10-17T18:49:58.951Z,15.18
2022-10-17T18:52:26.380Z,15.24
2022-10-17T18:54:54.145Z,15.14
2022-10-17T18:57:23.959Z,15.10
2022-10-17T18:59:53.900Z,15.14
2022-10-17T19:02:22.737Z,15.15
2022-10-17T19:04:50.234Z,15.10
2022-10-17T19:07:20.175Z,15.21
2022-10-17T19:09:49.146Z,15.18
2022-10-17T19:12:16.758Z,15.23
2022-10-17T19:14:44.443Z,15.20
2022-10-17T19:17:11.957Z,15.29
2022-10-17T19:19:41.543Z,15.21
2022-10-17T19:22:09.445Z,15.25
2022-10-17T19:24:36.873Z,15.27
2022-10-17T19:27:05.200Z,15.16
2022-10-17T19:29:33.034Z,15.04
2022-10-17T19:32:00.773Z,15.09
2022-10-17T19:34:28.611Z,15.04
2022-10-17T19:36:57.657Z,15.03
2022-10-17T19:39:26.451Z,14.86
2022-10-17T19:41:53.967Z,14.80
2022-10-17T19:44:21.391Z,14.86
2022-10-17T19:46:49.243Z,14.97
2022-10-17T19:49:16.979Z,14.98
2022-10-17T19:51:44.454Z,15.00
2022-10-17T19:54:15.015Z,15.02
2022-10-17T19:56:43.432Z,15.06
2022-10-17T19:59:12.421Z,14.93
2022-10-17T20:01:40.733Z,14.36
2022-10-17T20:04:09.218Z,14.84
2022-10-17T20:06:36.655Z,14.89
2022-10-17T20:09:04.155Z,14.78
2022-10-17T20:11:33.281Z,14.87
2022-10-17T20:14:01.391Z,14.89
2022-10-17T20:16:29.752Z,14.91
2022-10-17T20:18:58.303Z,14.89
2022-10-17T20:21:27.552Z,14.92
2022-10-17T20:23:55.267Z,14.93
2022-10-17T20:26:37.461Z,14.44
2022-10-17T20:29:08.866Z,14.86
2022-10-17T20:31:36.471Z,14.88
2022-10-17T20:34:04.277Z,14.95
2022-10-17T20:36:32.279Z,14.96
2022-10-17T20:39:00.137Z,15.00
2022-10-17T20:41:28.078Z,15.04
2022-10-17T20:43:56.342Z,15.04
2022-10-17T20:46:45.347Z,15.06
2022-10-17T20:49:15.043Z,15.07
2022-10-17T20:51:42.885Z,15.09
2022-10-17T20:54:10.504Z,15.07
2022-10-17T20:56:38.850Z,15.05
2022-10-17T20:59:07.416Z,15.06
2022-10-17T21:01:36.571Z,15.05
2022-10-17T21:04:33.197Z,15.02
2022-10-17T21:06:53.302Z,14.97
2022-10-17T21:09:21.032Z,14.95
2022-10-17T21:11:51.168Z,14.91
2022-10-17T21:14:19.224Z,14.86
2022-10-17T21:16:48.363Z,14.85
2022-10-17T21:19:16.573Z,14.79
2022-10-17T21:21:45.521Z,14.55
2022-10-17T21:24:14.219Z,14.46
2022-10-17T21:26:42.467Z,14.44
2022-10-17T21:29:10.476Z,14.55
2022-10-17T21:31:39.028Z,14.60
2022-10-17T21:34:08.741Z,14.22
2022-10-17T21:36:36.359Z,14.70
2022-10-17T21:39:04.315Z,14.68
2022-10-17T21:41:32.475Z,14.58
2022-10-17T21:44:00.546Z,14.64
2022-10-17T21:46:28.456Z,14.65
2022-10-17T21:48:56.277Z,14.64
2022-10-17T21:51:25.954Z,14.62
2022-10-17T21:53:55.728Z,14.62
2022-10-17T21:56:23.796Z,14.58
2022-10-17T21:58:51.850Z,14.62
2022-10-17T22:01:20.450Z,14.60
2022-10-17T22:03:49.340Z,14.57
2022-10-17T22:06:38.839Z,14.54
2022-10-17T22:09:08.784Z,14.49
2022-10-17T22:11:36.401Z,14.47
2022-10-17T22:14:05.383Z,14.05
2022-10-17T22:16:33.518Z,14.48
2022-10-17T22:19:05.823Z,14.50
2022-10-17T22:21:34.824Z,14.52
2022-10-17T22:24:02.960Z,14.49
2022-10-17T22:26:32.638Z,14.55
2022-10-17T22:29:00.231Z,14.54
2022-10-17T22:31:28.083Z,14.53
2022-10-17T22:33:55.758Z,14.56
2022-10-17T22:36:23.318Z,14.54
2022-10-17T22:38:50.727Z,14.49
2022-10-17T22:41:18.414Z,14.48
2022-10-17T22:43:47.210Z,14.44
2022-10-17T22:46:16.078Z,14.47
2022-10-17T22:48:43.598Z,14.49
2022-10-17T22:51:11.421Z,14.05
2022-10-17T22:53:39.263Z,14.55
2022-10-17T22:56:07.888Z,14.55
2022-10-17T22:58:36.196Z,14.43
2022-10-17T23:01:05.656Z,14.44
2022-10-17T23:03:33.330Z,14.50
2022-10-17T23:06:00.788Z,14.51
2022-10-17T23:08:28.304Z,14.58
2022-10-17T23:10:55.702Z,14.57
2022-10-17T23:13:23.326Z,14.59
2022-10-17T23:15:51.275Z,14.60
2022-10-17T23:18:20.251Z,14.59
2022-10-17T23:20:47.747Z,14.55
2022-10-17T23:23:15.432Z,14.55
2022-10-17T23:25:43.022Z,14.50
2022-10-17T23:28:10.913Z,14.57
2022-10-17T23:30:39.239Z,14.59
2022-10-17T23:33:06.876Z,14.61
2022-10-17T23:35:36.731Z,14.60
2022-10-17T23:38:04.240Z,14.61
2022-10-17T23:40:31.697Z,14.62
2022-10-17T23:42:59.229Z,14.59
2022-10-17T23:45:26.705Z,14.53
2022-10-17T23:47:54.179Z,14.54
2022-10-17T23:50:21.612Z,14.54
2022-10-17T23:52:50.464Z,14.49
2022-10-17T23:55:18.056Z,14.44
2022-10-17T23:57:45.499Z,14.44
